sensor_id;sensor_type;location;lat;lon;timestamp;P1;durP1;ratioP1;P2;durP2;ratioP2
69789;SDS011;57064;52.046;4.800;2023-08-30T00:00:56;9.02;;;5.90;;
69789;SDS011;57064;52.046;4.800;2023-08-30T00:03:22;7.97;;;5.70;;
69789;SDS011;57064;52.046;4.800;2023-08-30T00:05:49;10.43;;;5.80;;
69789;SDS011;57064;52.046;4.800;2023-08-30T00:08:15;10.98;;;6.72;;
69789;SDS011;57064;52.046;4.800;2023-08-30T00:10:47;13.98;;;8.43;;
69789;SDS011;57064;52.046;4.800;2023-08-30T00:13:13;9.23;;;6.28;;
69789;SDS011;57064;52.046;4.800;2023-08-30T00:15:40;10.98;;;6.07;;
69789;SDS011;57064;52.046;4.800;2023-08-30T00:18:06;10.18;;;5.90;;
69789;SDS011;57064;52.046;4.800;2023-08-30T00:20:32;9.35;;;6.03;;
69789;SDS011;57064;52.046;4.800;2023-08-30T00:22:59;10.48;;;6.82;;
69789;SDS011;57064;52.046;4.800;2023-08-30T00:25:25;10.55;;;5.93;;
69789;SDS011;57064;52.046;4.800;2023-08-30T00:27:51;8.45;;;5.68;;
69789;SDS011;57064;52.046;4.800;2023-08-30T00:30:17;10.60;;;6.07;;
69789;SDS011;57064;52.046;4.800;2023-08-30T00:32:43;11.15;;;6.75;;
69789;SDS011;57064;52.046;4.800;2023-08-30T00:35:09;10.45;;;7.00;;
69789;SDS011;57064;52.046;4.800;2023-08-30T00:37:36;9.80;;;6.30;;
69789;SDS011;57064;52.046;4.800;2023-08-30T00:40:02;12.40;;;6.85;;
69789;SDS011;57064;52.046;4.800;2023-08-30T00:42:28;12.30;;;6.68;;
69789;SDS011;57064;52.046;4.800;2023-08-30T00:44:54;13.50;;;6.78;;
69789;SDS011;57064;52.046;4.800;2023-08-30T00:47:20;10.93;;;6.90;;
69789;SDS011;57064;52.046;4.800;2023-08-30T00:49:47;13.15;;;7.10;;
69789;SDS011;57064;52.046;4.800;2023-08-30T00:52:13;11.90;;;6.30;;
69789;SDS011;57064;52.046;4.800;2023-08-30T00:54:40;10.88;;;6.28;;
69789;SDS011;57064;52.046;4.800;2023-08-30T00:57:06;11.02;;;6.88;;
69789;SDS011;57064;52.046;4.800;2023-08-30T00:59:33;11.23;;;6.80;;
69789;SDS011;57064;52.046;4.800;2023-08-30T01:01:59;13.82;;;6.93;;
69789;SDS011;57064;52.046;4.800;2023-08-30T01:04:28;11.38;;;6.68;;
69789;SDS011;57064;52.046;4.800;2023-08-30T01:06:54;12.50;;;6.95;;
69789;SDS011;57064;52.046;4.800;2023-08-30T01:09:21;12.77;;;7.13;;
69789;SDS011;57064;52.046;4.800;2023-08-30T01:11:52;10.73;;;6.22;;
69789;SDS011;57064;52.046;4.800;2023-08-30T01:14:24;12.18;;;6.78;;
69789;SDS011;57064;52.046;4.800;2023-08-30T01:16:55;12.35;;;6.90;;
69789;SDS011;57064;52.046;4.800;2023-08-30T01:25:05;12.27;;;7.28;;
69789;SDS011;57064;52.046;4.800;2023-08-30T01:27:42;13.10;;;7.60;;
69789;SDS011;57064;52.046;4.800;2023-08-30T01:30:10;14.50;;;7.40;;
69789;SDS011;57064;52.046;4.800;2023-08-30T01:32:36;15.05;;;7.43;;
69789;SDS011;57064;52.046;4.800;2023-08-30T01:35:04;12.65;;;7.25;;
69789;SDS011;57064;52.046;4.800;2023-08-30T01:37:31;12.23;;;6.93;;
69789;SDS011;57064;52.046;4.800;2023-08-30T01:39:58;15.50;;;7.10;;
69789;SDS011;57064;52.046;4.800;2023-08-30T01:42:25;15.05;;;7.97;;
69789;SDS011;57064;52.046;4.800;2023-08-30T01:44:53;14.00;;;7.45;;
69789;SDS011;57064;52.046;4.800;2023-08-30T01:47:23;15.48;;;8.15;;
69789;SDS011;57064;52.046;4.800;2023-08-30T01:49:52;13.10;;;7.93;;
69789;SDS011;57064;52.046;4.800;2023-08-30T01:52:19;14.77;;;8.57;;
69789;SDS011;57064;52.046;4.800;2023-08-30T01:54:47;13.35;;;8.05;;
69789;SDS011;57064;52.046;4.800;2023-08-30T01:57:13;13.55;;;7.95;;
69789;SDS011;57064;52.046;4.800;2023-08-30T01:59:40;15.05;;;7.30;;
69789;SDS011;57064;52.046;4.800;2023-08-30T02:02:06;13.68;;;7.53;;
69789;SDS011;57064;52.046;4.800;2023-08-30T02:04:32;12.43;;;7.30;;
69789;SDS011;57064;52.046;4.800;2023-08-30T02:07:00;15.13;;;7.90;;
69789;SDS011;57064;52.046;4.800;2023-08-30T02:09:31;14.82;;;8.25;;
69789;SDS011;57064;52.046;4.800;2023-08-30T02:12:00;12.93;;;7.93;;
69789;SDS011;57064;52.046;4.800;2023-08-30T02:14:30;14.15;;;7.80;;
69789;SDS011;57064;52.046;4.800;2023-08-30T02:16:58;13.35;;;8.02;;
69789;SDS011;57064;52.046;4.800;2023-08-30T02:19:24;14.20;;;8.55;;
69789;SDS011;57064;52.046;4.800;2023-08-30T02:21:50;17.48;;;8.95;;
69789;SDS011;57064;52.046;4.800;2023-08-30T02:24:17;16.45;;;8.63;;
69789;SDS011;57064;52.046;4.800;2023-08-30T02:26:43;16.92;;;8.30;;
69789;SDS011;57064;52.046;4.800;2023-08-30T02:29:09;14.45;;;7.53;;
69789;SDS011;57064;52.046;4.800;2023-08-30T02:31:35;15.52;;;8.77;;
69789;SDS011;57064;52.046;4.800;2023-08-30T02:34:01;14.68;;;8.77;;
69789;SDS011;57064;52.046;4.800;2023-08-30T02:36:27;14.40;;;8.00;;
69789;SDS011;57064;52.046;4.800;2023-08-30T02:38:53;14.80;;;8.18;;
69789;SDS011;57064;52.046;4.800;2023-08-30T02:41:19;16.35;;;8.57;;
69789;SDS011;57064;52.046;4.800;2023-08-30T02:43:45;14.45;;;7.68;;
69789;SDS011;57064;52.046;4.800;2023-08-30T02:46:11;15.35;;;8.35;;
69789;SDS011;57064;52.046;4.800;2023-08-30T02:48:37;16.73;;;8.18;;
69789;SDS011;57064;52.046;4.800;2023-08-30T02:51:03;15.50;;;8.02;;
69789;SDS011;57064;52.046;4.800;2023-08-30T02:53:29;13.50;;;8.10;;
69789;SDS011;57064;52.046;4.800;2023-08-30T02:55:56;17.65;;;9.07;;
69789;SDS011;57064;52.046;4.800;2023-08-30T02:58:22;16.73;;;8.55;;
69789;SDS011;57064;52.046;4.800;2023-08-30T03:00:48;15.48;;;8.25;;
69789;SDS011;57064;52.046;4.800;2023-08-30T03:03:14;16.73;;;8.27;;
69789;SDS011;57064;52.046;4.800;2023-08-30T03:05:40;14.68;;;8.63;;
69789;SDS011;57064;52.046;4.800;2023-08-30T03:08:06;14.77;;;8.57;;
69789;SDS011;57064;52.046;4.800;2023-08-30T03:10:32;16.45;;;8.77;;
69789;SDS011;57064;52.046;4.800;2023-08-30T03:12:58;16.00;;;8.18;;
69789;SDS011;57064;52.046;4.800;2023-08-30T03:15:24;17.05;;;8.90;;
69789;SDS011;57064;52.046;4.800;2023-08-30T03:17:50;15.45;;;8.70;;
69789;SDS011;57064;52.046;4.800;2023-08-30T03:20:17;14.82;;;9.35;;
69789;SDS011;57064;52.046;4.800;2023-08-30T03:22:43;14.40;;;8.77;;
69789;SDS011;57064;52.046;4.800;2023-08-30T03:25:10;13.55;;;7.45;;
69789;SDS011;57064;52.046;4.800;2023-08-30T03:27:36;15.52;;;8.73;;
69789;SDS011;57064;52.046;4.800;2023-08-30T03:30:03;15.63;;;8.90;;
69789;SDS011;57064;52.046;4.800;2023-08-30T03:32:29;16.63;;;8.43;;
69789;SDS011;57064;52.046;4.800;2023-08-30T03:34:57;14.40;;;9.02;;
69789;SDS011;57064;52.046;4.800;2023-08-30T03:37:23;14.65;;;8.88;;
69789;SDS011;57064;52.046;4.800;2023-08-30T03:39:49;14.02;;;7.88;;
69789;SDS011;57064;52.046;4.800;2023-08-30T03:42:15;16.33;;;8.95;;
69789;SDS011;57064;52.046;4.800;2023-08-30T03:44:41;14.52;;;8.63;;
69789;SDS011;57064;52.046;4.800;2023-08-30T03:47:07;17.05;;;9.90;;
69789;SDS011;57064;52.046;4.800;2023-08-30T03:49:34;16.75;;;8.77;;
69789;SDS011;57064;52.046;4.800;2023-08-30T03:52:00;17.55;;;9.52;;
69789;SDS011;57064;52.046;4.800;2023-08-30T03:54:27;16.17;;;9.27;;
69789;SDS011;57064;52.046;4.800;2023-08-30T03:56:53;13.98;;;8.60;;
69789;SDS011;57064;52.046;4.800;2023-08-30T03:59:19;18.25;;;10.32;;
69789;SDS011;57064;52.046;4.800;2023-08-30T04:01:46;18.85;;;9.82;;
69789;SDS011;57064;52.046;4.800;2023-08-30T04:04:12;17.80;;;8.73;;
69789;SDS011;57064;52.046;4.800;2023-08-30T04:06:39;16.10;;;8.15;;
69789;SDS011;57064;52.046;4.800;2023-08-30T04:09:05;18.17;;;9.43;;
69789;SDS011;57064;52.046;4.800;2023-08-30T04:11:32;17.77;;;9.70;;
69789;SDS011;57064;52.046;4.800;2023-08-30T04:13:58;18.73;;;9.88;;
69789;SDS011;57064;52.046;4.800;2023-08-30T04:16:24;20.05;;;10.60;;
69789;SDS011;57064;52.046;4.800;2023-08-30T04:18:50;16.00;;;9.07;;
69789;SDS011;57064;52.046;4.800;2023-08-30T04:21:16;19.92;;;9.93;;
69789;SDS011;57064;52.046;4.800;2023-08-30T04:23:42;16.95;;;9.50;;
69789;SDS011;57064;52.046;4.800;2023-08-30T04:26:08;18.02;;;9.90;;
69789;SDS011;57064;52.046;4.800;2023-08-30T04:28:34;18.55;;;10.05;;
69789;SDS011;57064;52.046;4.800;2023-08-30T04:31:00;17.85;;;10.05;;
69789;SDS011;57064;52.046;4.800;2023-08-30T04:33:26;19.00;;;10.32;;
69789;SDS011;57064;52.046;4.800;2023-08-30T04:35:53;17.33;;;9.07;;
69789;SDS011;57064;52.046;4.800;2023-08-30T04:38:20;20.92;;;10.15;;
69789;SDS011;57064;52.046;4.800;2023-08-30T04:40:46;17.90;;;9.63;;
69789;SDS011;57064;52.046;4.800;2023-08-30T04:43:13;21.45;;;10.80;;
69789;SDS011;57064;52.046;4.800;2023-08-30T04:45:39;18.23;;;10.32;;
69789;SDS011;57064;52.046;4.800;2023-08-30T04:48:05;21.63;;;10.55;;
69789;SDS011;57064;52.046;4.800;2023-08-30T04:50:32;17.63;;;9.30;;
69789;SDS011;57064;52.046;4.800;2023-08-30T04:52:58;21.83;;;10.90;;
69789;SDS011;57064;52.046;4.800;2023-08-30T04:55:24;20.95;;;10.38;;
69789;SDS011;57064;52.046;4.800;2023-08-30T04:57:53;19.30;;;9.77;;
69789;SDS011;57064;52.046;4.800;2023-08-30T05:00:19;16.20;;;9.23;;
69789;SDS011;57064;52.046;4.800;2023-08-30T05:02:45;18.50;;;10.52;;
69789;SDS011;57064;52.046;4.800;2023-08-30T05:05:12;19.92;;;10.45;;
69789;SDS011;57064;52.046;4.800;2023-08-30T05:07:39;16.88;;;9.23;;
69789;SDS011;57064;52.046;4.800;2023-08-30T05:10:05;16.33;;;9.35;;
69789;SDS011;57064;52.046;4.800;2023-08-30T05:12:35;22.52;;;11.05;;
69789;SDS011;57064;52.046;4.800;2023-08-30T05:15:01;17.73;;;9.65;;
69789;SDS011;57064;52.046;4.800;2023-08-30T05:17:29;18.20;;;10.20;;
69789;SDS011;57064;52.046;4.800;2023-08-30T05:19:56;18.25;;;8.63;;
69789;SDS011;57064;52.046;4.800;2023-08-30T05:22:22;15.68;;;9.52;;
69789;SDS011;57064;52.046;4.800;2023-08-30T05:24:48;17.27;;;8.85;;
69789;SDS011;57064;52.046;4.800;2023-08-30T05:27:14;16.92;;;8.90;;
69789;SDS011;57064;52.046;4.800;2023-08-30T05:29:42;18.15;;;8.55;;
69789;SDS011;57064;52.046;4.800;2023-08-30T05:32:08;18.00;;;8.98;;
69789;SDS011;57064;52.046;4.800;2023-08-30T05:34:34;17.05;;;10.02;;
69789;SDS011;57064;52.046;4.800;2023-08-30T05:37:00;15.85;;;9.25;;
69789;SDS011;57064;52.046;4.800;2023-08-30T05:39:26;22.33;;;9.95;;
69789;SDS011;57064;52.046;4.800;2023-08-30T05:41:52;19.02;;;10.20;;
69789;SDS011;57064;52.046;4.800;2023-08-30T05:44:18;18.83;;;9.98;;
69789;SDS011;57064;52.046;4.800;2023-08-30T05:46:44;20.92;;;9.65;;
69789;SDS011;57064;52.046;4.800;2023-08-30T05:49:10;21.50;;;9.55;;
69789;SDS011;57064;52.046;4.800;2023-08-30T05:51:37;21.80;;;9.82;;
69789;SDS011;57064;52.046;4.800;2023-08-30T05:54:03;27.25;;;10.88;;
69789;SDS011;57064;52.046;4.800;2023-08-30T05:56:29;19.30;;;10.45;;
69789;SDS011;57064;52.046;4.800;2023-08-30T05:58:55;21.92;;;11.10;;
69789;SDS011;57064;52.046;4.800;2023-08-30T06:01:21;22.77;;;11.02;;
69789;SDS011;57064;52.046;4.800;2023-08-30T06:03:47;23.35;;;11.32;;
69789;SDS011;57064;52.046;4.800;2023-08-30T06:06:15;23.17;;;11.15;;
69789;SDS011;57064;52.046;4.800;2023-08-30T06:08:41;26.95;;;11.23;;
69789;SDS011;57064;52.046;4.800;2023-08-30T06:11:07;21.08;;;11.55;;
69789;SDS011;57064;52.046;4.800;2023-08-30T06:13:34;25.42;;;13.13;;
69789;SDS011;57064;52.046;4.800;2023-08-30T06:16:00;29.13;;;13.43;;
69789;SDS011;57064;52.046;4.800;2023-08-30T06:18:29;22.45;;;11.85;;
69789;SDS011;57064;52.046;4.800;2023-08-30T06:20:56;22.58;;;11.77;;
69789;SDS011;57064;52.046;4.800;2023-08-30T06:23:22;26.52;;;12.65;;
69789;SDS011;57064;52.046;4.800;2023-08-30T06:25:57;26.15;;;13.32;;
69789;SDS011;57064;52.046;4.800;2023-08-30T06:28:23;31.35;;;14.10;;
69789;SDS011;57064;52.046;4.800;2023-08-30T06:30:50;28.25;;;13.27;;
69789;SDS011;57064;52.046;4.800;2023-08-30T06:33:16;25.92;;;12.93;;
69789;SDS011;57064;52.046;4.800;2023-08-30T06:35:42;24.02;;;11.65;;
69789;SDS011;57064;52.046;4.800;2023-08-30T06:38:08;27.50;;;13.25;;
69789;SDS011;57064;52.046;4.800;2023-08-30T06:40:35;24.67;;;12.45;;
69789;SDS011;57064;52.046;4.800;2023-08-30T06:43:01;29.73;;;12.60;;
69789;SDS011;57064;52.046;4.800;2023-08-30T06:45:28;25.95;;;12.68;;
69789;SDS011;57064;52.046;4.800;2023-08-30T06:47:54;25.48;;;13.25;;
69789;SDS011;57064;52.046;4.800;2023-08-30T06:50:20;26.95;;;13.25;;
69789;SDS011;57064;52.046;4.800;2023-08-30T06:52:46;23.17;;;13.10;;
69789;SDS011;57064;52.046;4.800;2023-08-30T06:55:12;26.60;;;13.55;;
69789;SDS011;57064;52.046;4.800;2023-08-30T06:57:40;28.08;;;12.93;;
69789;SDS011;57064;52.046;4.800;2023-08-30T07:00:06;27.52;;;13.50;;
69789;SDS011;57064;52.046;4.800;2023-08-30T07:02:34;24.90;;;12.90;;
69789;SDS011;57064;52.046;4.800;2023-08-30T07:05:02;23.80;;;11.90;;
69789;SDS011;57064;52.046;4.800;2023-08-30T07:07:30;29.25;;;13.80;;
69789;SDS011;57064;52.046;4.800;2023-08-30T07:09:56;30.23;;;13.00;;
69789;SDS011;57064;52.046;4.800;2023-08-30T07:12:22;29.95;;;12.85;;
69789;SDS011;57064;52.046;4.800;2023-08-30T07:14:48;26.13;;;13.63;;
69789;SDS011;57064;52.046;4.800;2023-08-30T07:17:15;24.05;;;12.77;;
69789;SDS011;57064;52.046;4.800;2023-08-30T07:19:41;25.40;;;12.38;;
69789;SDS011;57064;52.046;4.800;2023-08-30T07:22:07;24.23;;;11.70;;
69789;SDS011;57064;52.046;4.800;2023-08-30T07:24:33;22.58;;;12.75;;
69789;SDS011;57064;52.046;4.800;2023-08-30T07:26:59;23.05;;;11.57;;
69789;SDS011;57064;52.046;4.800;2023-08-30T07:29:25;26.30;;;12.07;;
69789;SDS011;57064;52.046;4.800;2023-08-30T07:31:52;21.02;;;10.65;;
69789;SDS011;57064;52.046;4.800;2023-08-30T07:34:19;21.33;;;10.63;;
69789;SDS011;57064;52.046;4.800;2023-08-30T07:36:45;20.40;;;10.85;;
69789;SDS011;57064;52.046;4.800;2023-08-30T07:39:12;17.33;;;10.50;;
69789;SDS011;57064;52.046;4.800;2023-08-30T07:41:38;18.63;;;11.05;;
69789;SDS011;57064;52.046;4.800;2023-08-30T07:44:04;19.05;;;10.63;;
69789;SDS011;57064;52.046;4.800;2023-08-30T07:46:30;18.65;;;9.25;;
69789;SDS011;57064;52.046;4.800;2023-08-30T07:48:56;14.68;;;9.43;;
69789;SDS011;57064;52.046;4.800;2023-08-30T07:51:23;17.52;;;10.02;;
69789;SDS011;57064;52.046;4.800;2023-08-30T07:53:49;19.23;;;10.25;;
69789;SDS011;57064;52.046;4.800;2023-08-30T07:56:15;16.88;;;9.45;;
69789;SDS011;57064;52.046;4.800;2023-08-30T07:58:41;16.10;;;9.45;;
69789;SDS011;57064;52.046;4.800;2023-08-30T08:01:10;16.92;;;8.90;;
69789;SDS011;57064;52.046;4.800;2023-08-30T08:03:36;14.93;;;8.93;;
69789;SDS011;57064;52.046;4.800;2023-08-30T08:06:02;14.70;;;8.93;;
69789;SDS011;57064;52.046;4.800;2023-08-30T08:08:28;15.45;;;8.88;;
69789;SDS011;57064;52.046;4.800;2023-08-30T08:10:55;13.13;;;7.97;;
69789;SDS011;57064;52.046;4.800;2023-08-30T08:13:21;12.35;;;7.63;;
69789;SDS011;57064;52.046;4.800;2023-08-30T08:15:47;12.10;;;7.22;;
69789;SDS011;57064;52.046;4.800;2023-08-30T08:18:13;11.43;;;7.15;;
69789;SDS011;57064;52.046;4.800;2023-08-30T08:20:40;11.90;;;7.30;;
69789;SDS011;57064;52.046;4.800;2023-08-30T08:23:08;11.65;;;7.20;;
69789;SDS011;57064;52.046;4.800;2023-08-30T08:25:34;12.38;;;8.27;;
69789;SDS011;57064;52.046;4.800;2023-08-30T08:28:00;11.30;;;6.68;;
69789;SDS011;57064;52.046;4.800;2023-08-30T08:30:26;12.10;;;6.78;;
69789;SDS011;57064;52.046;4.800;2023-08-30T08:32:52;11.75;;;7.43;;
69789;SDS011;57064;52.046;4.800;2023-08-30T08:35:19;9.77;;;6.63;;
69789;SDS011;57064;52.046;4.800;2023-08-30T08:37:45;9.40;;;6.40;;
69789;SDS011;57064;52.046;4.800;2023-08-30T08:40:12;10.60;;;6.85;;
69789;SDS011;57064;52.046;4.800;2023-08-30T08:42:38;11.15;;;7.28;;
69789;SDS011;57064;52.046;4.800;2023-08-30T08:45:04;14.90;;;8.32;;
69789;SDS011;57064;52.046;4.800;2023-08-30T08:47:31;12.45;;;7.10;;
69789;SDS011;57064;52.046;4.800;2023-08-30T08:49:58;13.40;;;8.38;;
69789;SDS011;57064;52.046;4.800;2023-08-30T08:52:25;13.18;;;8.13;;
69789;SDS011;57064;52.046;4.800;2023-08-30T08:54:51;12.55;;;7.45;;
69789;SDS011;57064;52.046;4.800;2023-08-30T08:57:19;10.10;;;7.13;;
69789;SDS011;57064;52.046;4.800;2023-08-30T08:59:45;10.68;;;6.65;;
69789;SDS011;57064;52.046;4.800;2023-08-30T09:02:12;9.70;;;7.07;;
69789;SDS011;57064;52.046;4.800;2023-08-30T09:04:39;11.75;;;7.30;;
69789;SDS011;57064;52.046;4.800;2023-08-30T09:07:06;11.68;;;7.50;;
69789;SDS011;57064;52.046;4.800;2023-08-30T09:09:32;12.00;;;8.32;;
69789;SDS011;57064;52.046;4.800;2023-08-30T09:11:59;12.70;;;8.25;;
69789;SDS011;57064;52.046;4.800;2023-08-30T09:14:25;14.00;;;7.80;;
69789;SDS011;57064;52.046;4.800;2023-08-30T09:16:55;9.65;;;7.05;;
69789;SDS011;57064;52.046;4.800;2023-08-30T09:19:22;9.05;;;7.22;;
69789;SDS011;57064;52.046;4.800;2023-08-30T09:21:56;8.55;;;6.97;;
69789;SDS011;57064;52.046;4.800;2023-08-30T09:24:23;8.77;;;6.22;;
69789;SDS011;57064;52.046;4.800;2023-08-30T09:26:52;8.25;;;6.40;;
69789;SDS011;57064;52.046;4.800;2023-08-30T09:29:20;7.85;;;5.78;;
69789;SDS011;57064;52.046;4.800;2023-08-30T09:31:50;7.55;;;5.18;;
69789;SDS011;57064;52.046;4.800;2023-08-30T09:34:23;5.28;;;3.88;;
69789;SDS011;57064;52.046;4.800;2023-08-30T09:36:50;6.68;;;3.88;;
69789;SDS011;57064;52.046;4.800;2023-08-30T09:39:17;6.60;;;3.70;;
69789;SDS011;57064;52.046;4.800;2023-08-30T09:41:44;4.95;;;3.70;;
69789;SDS011;57064;52.046;4.800;2023-08-30T09:44:12;7.60;;;3.80;;
69789;SDS011;57064;52.046;4.800;2023-08-30T09:46:40;8.70;;;3.22;;
69789;SDS011;57064;52.046;4.800;2023-08-30T09:49:10;7.85;;;2.80;;
69789;SDS011;57064;52.046;4.800;2023-08-30T09:51:38;10.98;;;3.33;;
69789;SDS011;57064;52.046;4.800;2023-08-30T09:54:13;8.10;;;3.38;;
69789;SDS011;57064;52.046;4.800;2023-08-30T09:56:41;4.28;;;2.28;;
69789;SDS011;57064;52.046;4.800;2023-08-30T09:59:11;6.15;;;2.38;;
69789;SDS011;57064;52.046;4.800;2023-08-30T10:01:39;5.40;;;3.53;;
69789;SDS011;57064;52.046;4.800;2023-08-30T10:04:09;7.20;;;2.10;;
69789;SDS011;57064;52.046;4.800;2023-08-30T10:06:39;7.22;;;2.70;;
69789;SDS011;57064;52.046;4.800;2023-08-30T10:09:06;8.02;;;2.75;;
69789;SDS011;57064;52.046;4.800;2023-08-30T10:11:34;5.28;;;2.55;;
69789;SDS011;57064;52.046;4.800;2023-08-30T10:14:02;6.93;;;2.67;;
69789;SDS011;57064;52.046;4.800;2023-08-30T10:16:30;8.98;;;2.70;;
69789;SDS011;57064;52.046;4.800;2023-08-30T10:19:32;7.03;;;2.63;;
69789;SDS011;57064;52.046;4.800;2023-08-30T10:22:03;8.93;;;3.10;;
69789;SDS011;57064;52.046;4.800;2023-08-30T10:24:40;6.43;;;3.47;;
69789;SDS011;57064;52.046;4.800;2023-08-30T10:27:09;7.00;;;3.10;;
69789;SDS011;57064;52.046;4.800;2023-08-30T10:29:38;7.47;;;2.67;;
69789;SDS011;57064;52.046;4.800;2023-08-30T10:32:06;11.57;;;3.33;;
69789;SDS011;57064;52.046;4.800;2023-08-30T10:34:33;8.35;;;2.95;;
69789;SDS011;57064;52.046;4.800;2023-08-30T10:37:01;4.95;;;2.15;;
69789;SDS011;57064;52.046;4.800;2023-08-30T10:39:35;9.93;;;2.53;;
69789;SDS011;57064;52.046;4.800;2023-08-30T10:42:08;6.63;;;2.15;;
69789;SDS011;57064;52.046;4.800;2023-08-30T10:44:34;9.00;;;2.05;;
69789;SDS011;57064;52.046;4.800;2023-08-30T10:47:23;12.50;;;2.47;;
69789;SDS011;57064;52.046;4.800;2023-08-30T10:49:54;5.68;;;2.40;;
69789;SDS011;57064;52.046;4.800;2023-08-30T10:52:21;9.02;;;2.38;;
69789;SDS011;57064;52.046;4.800;2023-08-30T10:54:49;9.85;;;2.40;;
69789;SDS011;57064;52.046;4.800;2023-08-30T10:57:18;10.80;;;2.35;;
69789;SDS011;57064;52.046;4.800;2023-08-30T11:02:38;7.30;;;2.22;;
69789;SDS011;57064;52.046;4.800;2023-08-30T11:05:08;9.40;;;2.70;;
69789;SDS011;57064;52.046;4.800;2023-08-30T11:07:35;8.88;;;2.47;;
69789;SDS011;57064;52.046;4.800;2023-08-30T11:10:03;10.07;;;2.72;;
69789;SDS011;57064;52.046;4.800;2023-08-30T11:12:31;7.72;;;2.40;;
69789;SDS011;57064;52.046;4.800;2023-08-30T11:14:57;6.63;;;2.35;;
69789;SDS011;57064;52.046;4.800;2023-08-30T11:17:26;7.95;;;2.38;;
69789;SDS011;57064;52.046;4.800;2023-08-30T11:20:05;7.88;;;2.65;;
69789;SDS011;57064;52.046;4.800;2023-08-30T11:22:32;10.57;;;2.10;;
69789;SDS011;57064;52.046;4.800;2023-08-30T11:25:02;10.50;;;2.40;;
69789;SDS011;57064;52.046;4.800;2023-08-30T11:27:29;6.35;;;2.35;;
69789;SDS011;57064;52.046;4.800;2023-08-30T11:29:58;9.40;;;2.13;;
69789;SDS011;57064;52.046;4.800;2023-08-30T11:32:28;8.00;;;1.45;;
69789;SDS011;57064;52.046;4.800;2023-08-30T11:34:57;6.10;;;1.35;;
69789;SDS011;57064;52.046;4.800;2023-08-30T11:37:26;5.63;;;1.33;;
69789;SDS011;57064;52.046;4.800;2023-08-30T11:39:53;7.93;;;1.92;;
69789;SDS011;57064;52.046;4.800;2023-08-30T11:42:22;6.60;;;1.55;;
69789;SDS011;57064;52.046;4.800;2023-08-30T11:44:49;7.18;;;2.28;;
69789;SDS011;57064;52.046;4.800;2023-08-30T11:47:19;7.22;;;2.08;;
69789;SDS011;57064;52.046;4.800;2023-08-30T11:49:48;6.93;;;1.42;;
69789;SDS011;57064;52.046;4.800;2023-08-30T11:52:17;6.70;;;1.85;;
69789;SDS011;57064;52.046;4.800;2023-08-30T11:54:45;9.75;;;1.55;;
69789;SDS011;57064;52.046;4.800;2023-08-30T11:57:12;3.90;;;1.35;;
69789;SDS011;57064;52.046;4.800;2023-08-30T11:59:39;6.65;;;2.17;;
69789;SDS011;57064;52.046;4.800;2023-08-30T12:02:06;4.35;;;1.48;;
69789;SDS011;57064;52.046;4.800;2023-08-30T12:04:36;4.95;;;1.30;;
69789;SDS011;57064;52.046;4.800;2023-08-30T12:07:08;8.30;;;1.75;;
69789;SDS011;57064;52.046;4.800;2023-08-30T12:09:36;5.65;;;1.90;;
69789;SDS011;57064;52.046;4.800;2023-08-30T12:12:11;8.07;;;1.70;;
69789;SDS011;57064;52.046;4.800;2023-08-30T12:14:38;5.47;;;1.60;;
69789;SDS011;57064;52.046;4.800;2023-08-30T12:17:04;7.03;;;1.65;;
69789;SDS011;57064;52.046;4.800;2023-08-30T12:19:33;5.88;;;1.52;;
69789;SDS011;57064;52.046;4.800;2023-08-30T12:22:03;9.30;;;2.40;;
69789;SDS011;57064;52.046;4.800;2023-08-30T12:24:51;3.95;;;1.90;;
69789;SDS011;57064;52.046;4.800;2023-08-30T12:27:16;10.02;;;1.83;;
69789;SDS011;57064;52.046;4.800;2023-08-30T12:29:42;9.80;;;1.67;;
69789;SDS011;57064;52.046;4.800;2023-08-30T12:32:08;7.88;;;2.38;;
69789;SDS011;57064;52.046;4.800;2023-08-30T12:34:34;4.72;;;2.17;;
69789;SDS011;57064;52.046;4.800;2023-08-30T12:37:00;7.25;;;1.95;;
69789;SDS011;57064;52.046;4.800;2023-08-30T12:39:28;8.98;;;2.22;;
69789;SDS011;57064;52.046;4.800;2023-08-30T12:41:54;6.78;;;2.25;;
69789;SDS011;57064;52.046;4.800;2023-08-30T12:44:20;7.07;;;1.83;;
69789;SDS011;57064;52.046;4.800;2023-08-30T12:46:46;6.28;;;1.60;;
69789;SDS011;57064;52.046;4.800;2023-08-30T12:49:13;5.88;;;1.58;;
69789;SDS011;57064;52.046;4.800;2023-08-30T12:51:39;5.10;;;1.50;;
69789;SDS011;57064;52.046;4.800;2023-08-30T12:54:05;9.13;;;1.75;;
69789;SDS011;57064;52.046;4.800;2023-08-30T12:56:31;7.47;;;2.20;;
69789;SDS011;57064;52.046;4.800;2023-08-30T12:58:57;6.68;;;1.60;;
69789;SDS011;57064;52.046;4.800;2023-08-30T13:01:23;5.65;;;2.15;;
69789;SDS011;57064;52.046;4.800;2023-08-30T13:03:50;6.90;;;1.60;;
69789;SDS011;57064;52.046;4.800;2023-08-30T13:06:16;4.88;;;1.60;;
69789;SDS011;57064;52.046;4.800;2023-08-30T13:08:42;7.13;;;1.65;;
69789;SDS011;57064;52.046;4.800;2023-08-30T13:11:08;5.28;;;2.13;;
69789;SDS011;57064;52.046;4.800;2023-08-30T13:13:34;6.95;;;3.33;;
69789;SDS011;57064;52.046;4.800;2023-08-30T13:16:00;9.50;;;2.60;;
69789;SDS011;57064;52.046;4.800;2023-08-30T13:18:26;8.00;;;2.30;;
69789;SDS011;57064;52.046;4.800;2023-08-30T13:20:55;9.30;;;2.40;;
69789;SDS011;57064;52.046;4.800;2023-08-30T13:23:21;5.30;;;2.20;;
69789;SDS011;57064;52.046;4.800;2023-08-30T13:25:47;9.38;;;3.13;;
69789;SDS011;57064;52.046;4.800;2023-08-30T13:28:16;10.50;;;2.55;;
69789;SDS011;57064;52.046;4.800;2023-08-30T13:30:45;5.15;;;2.55;;
69789;SDS011;57064;52.046;4.800;2023-08-30T13:33:12;3.38;;;2.40;;
69789;SDS011;57064;52.046;4.800;2023-08-30T13:35:38;7.10;;;2.55;;
69789;SDS011;57064;52.046;4.800;2023-08-30T13:38:05;8.68;;;2.75;;
69789;SDS011;57064;52.046;4.800;2023-08-30T13:40:31;7.32;;;2.72;;
69789;SDS011;57064;52.046;4.800;2023-08-30T13:42:57;9.43;;;2.60;;
69789;SDS011;57064;52.046;4.800;2023-08-30T13:45:23;5.32;;;2.50;;
69789;SDS011;57064;52.046;4.800;2023-08-30T13:47:49;6.30;;;2.22;;
69789;SDS011;57064;52.046;4.800;2023-08-30T13:50:18;6.63;;;2.10;;
69789;SDS011;57064;52.046;4.800;2023-08-30T13:52:44;7.45;;;2.22;;
69789;SDS011;57064;52.046;4.800;2023-08-30T13:55:10;9.05;;;2.05;;
69789;SDS011;57064;52.046;4.800;2023-08-30T13:57:36;5.97;;;2.03;;
69789;SDS011;57064;52.046;4.800;2023-08-30T14:00:02;4.60;;;1.90;;
69789;SDS011;57064;52.046;4.800;2023-08-30T14:05:01;4.53;;;1.70;;
69789;SDS011;57064;52.046;4.800;2023-08-30T14:07:27;6.68;;;1.70;;
69789;SDS011;57064;52.046;4.800;2023-08-30T14:09:53;4.22;;;1.67;;
69789;SDS011;57064;52.046;4.800;2023-08-30T14:12:19;5.35;;;1.55;;
69789;SDS011;57064;52.046;4.800;2023-08-30T14:14:45;4.35;;;1.70;;
69789;SDS011;57064;52.046;4.800;2023-08-30T14:17:12;4.65;;;1.58;;
69789;SDS011;57064;52.046;4.800;2023-08-30T14:19:38;3.58;;;1.35;;
69789;SDS011;57064;52.046;4.800;2023-08-30T14:22:04;4.45;;;1.20;;
69789;SDS011;57064;52.046;4.800;2023-08-30T14:24:31;3.88;;;1.50;;
69789;SDS011;57064;52.046;4.800;2023-08-30T14:26:58;5.63;;;2.20;;
69789;SDS011;57064;52.046;4.800;2023-08-30T14:29:26;4.43;;;1.80;;
69789;SDS011;57064;52.046;4.800;2023-08-30T14:31:53;5.80;;;1.90;;
69789;SDS011;57064;52.046;4.800;2023-08-30T14:34:19;4.20;;;1.67;;
69789;SDS011;57064;52.046;4.800;2023-08-30T14:36:46;5.13;;;1.60;;
69789;SDS011;57064;52.046;4.800;2023-08-30T14:39:13;5.55;;;1.60;;
69789;SDS011;57064;52.046;4.800;2023-08-30T14:41:39;6.93;;;1.85;;
69789;SDS011;57064;52.046;4.800;2023-08-30T14:44:05;4.82;;;1.67;;
69789;SDS011;57064;52.046;4.800;2023-08-30T14:46:32;4.57;;;1.45;;